createdAt,value
2017-08-14T00:01:36.349Z,3.17
2017-08-14T00:04:05.339Z,3.10
2017-08-14T00:06:34.285Z,2.57
2017-08-14T00:09:03.251Z,2.60
2017-08-14T00:11:32.207Z,1.73
2017-08-14T00:14:01.958Z,4.00
2017-08-14T00:16:30.926Z,2.20
2017-08-14T00:18:59.893Z,3.07
2017-08-14T00:21:28.885Z,1.67
2017-08-14T00:23:58.617Z,3.30
2017-08-14T00:26:27.592Z,1.97
2017-08-14T00:28:56.692Z,1.97
2017-08-14T00:31:25.744Z,1.60
2017-08-14T00:33:54.720Z,2.20
2017-08-14T00:36:23.778Z,2.10
2017-08-14T00:38:53.556Z,1.63
2017-08-14T00:41:22.553Z,1.97
2017-08-14T00:43:51.677Z,1.97
2017-08-14T00:46:20.669Z,1.83
2017-08-14T00:48:49.665Z,4.40
2017-08-14T00:51:18.606Z,1.50
2017-08-14T00:53:47.659Z,2.13
2017-08-14T00:56:16.639Z,2.17
2017-08-14T00:58:45.599Z,4.00
2017-08-14T01:01:15.999Z,2.60
2017-08-14T01:03:44.939Z,2.87
2017-08-14T01:06:14.144Z,5.17
2017-08-14T01:08:43.092Z,2.47
2017-08-14T01:11:12.342Z,1.80
2017-08-14T01:13:41.379Z,2.90
2017-08-14T01:16:10.497Z,4.03
2017-08-14T01:18:39.423Z,2.20
2017-08-14T01:21:08.404Z,2.43
2017-08-14T01:23:37.347Z,3.67
2017-08-14T01:26:06.305Z,1.53
2017-08-14T01:28:35.282Z,1.50
2017-08-14T01:31:04.296Z,2.67
2017-08-14T01:33:33.243Z,3.53
2017-08-14T01:36:02.618Z,4.33
2017-08-14T01:38:31.604Z,1.37
2017-08-14T01:41:00.593Z,2.07
2017-08-14T01:43:29.547Z,2.23
2017-08-14T01:45:58.495Z,2.17
2017-08-14T01:48:27.504Z,2.70
2017-08-14T01:50:56.472Z,2.43
2017-08-14T01:53:25.416Z,2.00
2017-08-14T01:55:54.397Z,1.90
2017-08-14T01:58:23.462Z,3.63
2017-08-14T02:00:53.181Z,4.10
2017-08-14T02:03:22.199Z,1.70
2017-08-14T02:05:51.137Z,1.67
2017-08-14T02:08:20.096Z,2.43
2017-08-14T02:10:49.046Z,3.10
2017-08-14T02:13:18.021Z,2.97
2017-08-14T02:15:46.999Z,2.47
2017-08-14T02:18:16.686Z,2.77
2017-08-14T02:20:45.655Z,1.53
2017-08-14T02:23:14.603Z,2.17
2017-08-14T02:25:44.785Z,2.00
2017-08-14T02:28:13.726Z,1.60
2017-08-14T02:30:42.700Z,1.63
2017-08-14T02:33:11.675Z,2.40
2017-08-14T02:35:40.608Z,1.83
2017-08-14T02:38:09.611Z,2.90
2017-08-14T02:40:38.593Z,2.03
2017-08-14T02:43:07.577Z,3.67
2017-08-14T02:45:36.540Z,2.73
2017-08-14T02:48:05.708Z,2.30
2017-08-14T02:50:34.688Z,3.13
2017-08-14T02:53:04.389Z,6.50
2017-08-14T02:55:33.357Z,2.80
2017-08-14T02:58:03.083Z,3.13
2017-08-14T03:00:32.096Z,2.50
2017-08-14T03:03:01.160Z,2.27
2017-08-14T03:05:30.214Z,2.60
2017-08-14T03:07:59.412Z,3.90
2017-08-14T03:10:28.376Z,4.37
2017-08-14T03:12:57.327Z,3.20
2017-08-14T03:15:26.815Z,2.50
2017-08-14T03:17:55.958Z,2.23
2017-08-14T03:20:25.976Z,3.40
2017-08-14T03:22:55.008Z,4.13
2017-08-14T03:25:23.954Z,3.30
2017-08-14T03:27:52.952Z,2.77
2017-08-14T03:30:21.885Z,4.40
2017-08-14T03:32:50.844Z,4.87
2017-08-14T03:35:19.799Z,3.10
2017-08-14T03:37:48.758Z,3.13
2017-08-14T03:40:17.710Z,5.00
2017-08-14T03:42:46.678Z,5.20
2017-08-14T03:45:15.751Z,3.73
2017-08-14T03:47:44.688Z,4.00
2017-08-14T03:50:13.655Z,4.00
2017-08-14T03:52:42.728Z,3.83
2017-08-14T03:55:12.582Z,4.10
2017-08-14T03:57:41.544Z,4.37
2017-08-14T04:00:10.569Z,4.00
2017-08-14T04:02:40.372Z,4.43
2017-08-14T04:05:09.328Z,3.90
2017-08-14T04:07:38.297Z,4.23
2017-08-14T04:10:08.160Z,6.40
2017-08-14T04:12:37.134Z,5.47
2017-08-14T04:15:06.093Z,7.63
2017-08-14T04:17:35.060Z,6.90
2017-08-14T04:20:04.407Z,6.83
2017-08-14T04:22:33.352Z,5.20
2017-08-14T04:25:02.293Z,6.00
2017-08-14T04:27:31.270Z,12.70
2017-08-14T04:30:00.217Z,5.80
2017-08-14T04:32:29.189Z,6.70
2017-08-14T04:34:58.157Z,6.77
2017-08-14T04:37:27.702Z,5.13
2017-08-14T04:39:56.700Z,9.00
2017-08-14T04:42:25.670Z,8.07
2017-08-14T04:44:54.625Z,8.17
2017-08-14T04:47:24.364Z,5.50
2017-08-14T04:49:53.315Z,15.87
2017-08-14T04:52:22.453Z,7.93
2017-08-14T04:54:51.409Z,6.90
2017-08-14T04:57:21.158Z,9.43
2017-08-14T04:59:50.117Z,6.93
2017-08-14T05:02:19.860Z,6.83
2017-08-14T05:04:48.944Z,6.90
2017-08-14T05:07:18.000Z,6.60
2017-08-14T05:09:46.946Z,8.03
2017-08-14T05:12:15.989Z,6.33
2017-08-14T05:14:44.922Z,7.53
2017-08-14T05:17:13.886Z,6.37
2017-08-14T05:19:43.597Z,6.93
2017-08-14T05:22:12.640Z,8.93
2017-08-14T05:24:41.594Z,5.80
2017-08-14T05:27:10.712Z,6.73
2017-08-14T05:29:39.668Z,8.13
2017-08-14T05:32:09.284Z,7.73
2017-08-14T05:34:38.238Z,6.80
2017-08-14T05:37:08.039Z,11.60
2017-08-14T05:39:37.006Z,6.33
2017-08-14T05:42:05.974Z,7.03
2017-08-14T05:44:34.954Z,9.10
2017-08-14T05:47:03.934Z,7.30
2017-08-14T05:49:33.108Z,6.83
2017-08-14T05:52:02.058Z,8.10
2017-08-14T05:54:31.036Z,8.30
2017-08-14T05:56:59.977Z,7.00
2017-08-14T05:59:28.922Z,9.73
2017-08-14T06:01:57.864Z,5.83
2017-08-14T06:04:26.827Z,8.00
2017-08-14T06:06:56.985Z,9.73
2017-08-14T06:09:25.981Z,6.13
2017-08-14T06:11:55.712Z,11.30
2017-08-14T06:14:24.967Z,8.47
2017-08-14T06:16:53.920Z,7.83
2017-08-14T06:19:22.971Z,8.30
2017-08-14T06:21:52.061Z,7.37
2017-08-14T06:24:21.052Z,8.40
2017-08-14T06:26:50.324Z,7.07
2017-08-14T06:29:19.387Z,7.17
2017-08-14T06:31:48.321Z,5.63
2017-08-14T06:34:17.419Z,7.03
2017-08-14T06:36:46.412Z,5.83
2017-08-14T06:39:15.433Z,5.60
2017-08-14T06:41:44.375Z,7.17
2017-08-14T06:44:13.402Z,6.43
2017-08-14T06:46:42.389Z,6.80
2017-08-14T06:49:11.372Z,11.83
2017-08-14T06:51:40.423Z,4.00
2017-08-14T06:54:11.288Z,5.03
2017-08-14T06:56:40.382Z,4.90
2017-08-14T06:59:09.309Z,7.80
2017-08-14T07:01:40.709Z,6.50
2017-08-14T07:04:10.356Z,3.77
2017-08-14T07:06:39.333Z,4.97
2017-08-14T07:09:08.327Z,3.37
2017-08-14T07:11:37.351Z,3.30
2017-08-14T07:14:07.113Z,5.23
2017-08-14T07:16:36.056Z,7.30
2017-08-14T07:19:05.068Z,7.80
2017-08-14T07:21:34.088Z,7.10
2017-08-14T07:24:03.040Z,3.03
2017-08-14T07:26:32.036Z,4.53
2017-08-14T07:29:01.004Z,2.40
2017-08-14T07:31:30.805Z,4.17
2017-08-14T07:33:59.750Z,2.40
2017-08-14T07:36:28.713Z,4.43
2017-08-14T07:38:57.923Z,5.80
2017-08-14T07:41:26.876Z,3.40
2017-08-14T07:43:56.126Z,4.43
2017-08-14T07:46:25.083Z,5.47
2017-08-14T07:48:55.008Z,2.97
2017-08-14T07:51:23.989Z,3.67
2017-08-14T07:53:52.982Z,6.77
2017-08-14T07:56:21.957Z,3.63
2017-08-14T07:58:50.920Z,3.40
2017-08-14T08:01:19.898Z,3.70
2017-08-14T08:03:48.860Z,2.33
2017-08-14T08:06:17.873Z,3.63
2017-08-14T08:08:47.195Z,2.67
2017-08-14T08:11:16.184Z,3.73
2017-08-14T08:13:45.133Z,5.50
2017-08-14T08:16:14.180Z,4.50
2017-08-14T08:18:44.494Z,1.73
2017-08-14T08:21:13.798Z,4.90
2017-08-14T08:23:42.761Z,2.73
2017-08-14T08:26:11.738Z,1.87
2017-08-14T08:28:40.700Z,4.03
2017-08-14T08:31:09.698Z,2.73
2017-08-14T08:33:39.456Z,3.23
2017-08-14T08:36:09.235Z,6.87
2017-08-14T08:38:38.204Z,3.53
2017-08-14T08:41:07.157Z,3.60
2017-08-14T08:43:36.124Z,2.60
2017-08-14T08:46:05.079Z,2.80
2017-08-14T08:48:34.031Z,3.30
2017-08-14T08:51:03.169Z,3.53
2017-08-14T08:53:32.111Z,4.43
2017-08-14T08:56:01.812Z,4.07
2017-08-14T08:58:30.767Z,2.53
2017-08-14T09:01:00.507Z,7.07
2017-08-14T09:03:29.461Z,4.10
2017-08-14T09:05:59.180Z,2.80
2017-08-14T09:08:28.166Z,4.40
2017-08-14T09:10:57.924Z,3.43
2017-08-14T09:13:26.872Z,3.43
2017-08-14T09:15:55.832Z,1.80
2017-08-14T09:18:24.800Z,3.60
2017-08-14T09:20:53.789Z,3.73
2017-08-14T09:23:22.764Z,1.93
2017-08-14T09:25:52.150Z,1.30
2017-08-14T09:28:21.218Z,3.60
2017-08-14T09:30:50.170Z,3.43
2017-08-14T09:33:19.120Z,3.10
2017-08-14T09:35:48.088Z,2.03
2017-08-14T09:38:17.847Z,4.10
2017-08-14T09:40:47.111Z,2.40
2017-08-14T09:43:16.087Z,1.47
2017-08-14T09:45:45.794Z,1.57
2017-08-14T09:48:16.469Z,3.40
2017-08-14T09:50:46.977Z,1.53
2017-08-14T09:53:16.046Z,2.30
2017-08-14T09:55:44.979Z,3.17
2017-08-14T09:58:13.960Z,1.20
2017-08-14T10:00:43.160Z,1.67
2017-08-14T10:03:12.143Z,1.70
2017-08-14T10:05:41.068Z,3.90
2017-08-14T10:08:10.031Z,5.20
2017-08-14T10:10:39.012Z,2.37
2017-08-14T10:13:07.959Z,1.60
2017-08-14T10:15:36.985Z,2.27
2017-08-14T10:18:05.941Z,2.17
2017-08-14T10:20:34.904Z,3.23
2017-08-14T10:23:03.996Z,3.47
2017-08-14T10:25:32.947Z,3.40
2017-08-14T10:28:01.918Z,5.03
2017-08-14T10:30:30.891Z,1.57
2017-08-14T10:32:59.854Z,2.30
2017-08-14T10:35:28.796Z,1.50
2017-08-14T10:37:57.781Z,1.20
2017-08-14T10:40:26.733Z,1.30
2017-08-14T10:42:55.703Z,1.83
2017-08-14T10:45:25.425Z,1.70
2017-08-14T10:47:54.412Z,4.00
2017-08-14T10:50:23.381Z,1.90
2017-08-14T10:52:52.347Z,1.73
2017-08-14T10:55:21.296Z,1.60
2017-08-14T10:57:50.258Z,1.30
2017-08-14T11:00:19.976Z,3.10
2017-08-14T11:02:48.962Z,1.93
2017-08-14T11:05:18.668Z,1.27
2017-08-14T11:07:49.165Z,1.23
2017-08-14T11:10:18.169Z,1.00
2017-08-14T11:12:47.121Z,2.83
2017-08-14T11:15:16.284Z,2.13
2017-08-14T11:17:46.029Z,2.40
2017-08-14T11:20:15.081Z,2.23
2017-08-14T11:22:44.803Z,3.40
2017-08-14T11:25:13.827Z,1.80
2017-08-14T11:27:43.666Z,2.90
2017-08-14T11:30:12.603Z,2.77
2017-08-14T11:32:41.712Z,1.63
2017-08-14T11:35:10.681Z,2.87
2017-08-14T11:37:39.628Z,2.23
2017-08-14T11:40:08.606Z,1.20
2017-08-14T11:42:37.641Z,1.10
2017-08-14T11:45:06.591Z,2.67
2017-08-14T11:47:35.588Z,1.63
2017-08-14T11:50:04.609Z,1.47
2017-08-14T11:52:33.587Z,1.10
2017-08-14T11:55:02.519Z,2.17
2017-08-14T11:57:31.598Z,2.50
2017-08-14T12:00:00.740Z,1.40
2017-08-14T12:02:29.716Z,2.43
2017-08-14T12:04:58.752Z,4.03
2017-08-14T12:07:27.686Z,1.47
2017-08-14T12:09:56.663Z,1.40
2017-08-14T12:12:26.396Z,1.87
2017-08-14T12:14:55.462Z,1.87
2017-08-14T12:17:24.610Z,1.90
2017-08-14T12:19:53.576Z,1.37
2017-08-14T12:22:22.621Z,1.53
2017-08-14T12:24:51.583Z,1.90
2017-08-14T12:27:20.596Z,3.00
2017-08-14T12:29:49.628Z,1.63
2017-08-14T12:32:19.394Z,1.50
2017-08-14T12:34:49.053Z,3.13
2017-08-14T12:37:18.014Z,2.07
2017-08-14T12:39:46.955Z,2.80
2017-08-14T12:42:16.128Z,1.97
2017-08-14T12:44:45.091Z,1.37
2017-08-14T12:47:14.093Z,1.23
2017-08-14T12:49:45.073Z,1.33
2017-08-14T12:52:14.574Z,1.10
2017-08-14T12:54:43.894Z,2.30
2017-08-14T12:57:12.892Z,1.37
2017-08-14T12:59:42.301Z,1.00
2017-08-14T13:02:11.264Z,3.83
2017-08-14T13:04:40.221Z,3.20
2017-08-14T13:07:10.136Z,1.40
2017-08-14T13:09:39.846Z,1.20
2017-08-14T13:12:09.595Z,3.13
2017-08-14T13:14:38.540Z,1.93
2017-08-14T13:17:07.544Z,1.53
2017-08-14T13:19:37.271Z,1.57
2017-08-14T13:22:06.244Z,2.37
2017-08-14T13:24:35.949Z,1.30
2017-08-14T13:27:04.923Z,1.63
2017-08-14T13:29:33.913Z,2.43
2017-08-14T13:32:02.895Z,1.97
2017-08-14T13:34:31.845Z,2.70
2017-08-14T13:37:00.821Z,1.33
2017-08-14T13:39:29.769Z,2.80
2017-08-14T13:41:59.515Z,1.47
2017-08-14T13:44:28.475Z,1.50
2017-08-14T13:46:57.429Z,3.40
2017-08-14T13:49:26.412Z,2.60
2017-08-14T13:51:55.388Z,2.33
2017-08-14T13:54:24.326Z,1.73
2017-08-14T13:56:53.303Z,2.17
2017-08-14T13:59:22.302Z,3.37
2017-08-14T14:01:52.162Z,1.70
2017-08-14T14:04:21.875Z,2.00
2017-08-14T14:06:51.623Z,1.70
2017-08-14T14:09:20.671Z,1.67
2017-08-14T14:11:49.641Z,1.60
2017-08-14T14:14:18.591Z,1.33
2017-08-14T14:16:47.582Z,1.33
2017-08-14T14:19:16.526Z,1.40
2017-08-14T14:21:45.508Z,1.70
2017-08-14T14:24:15.252Z,2.43
2017-08-14T14:26:44.230Z,1.40
2017-08-14T14:29:13.178Z,2.07
2017-08-14T14:31:42.221Z,2.10
2017-08-14T14:34:11.842Z,2.90
2017-08-14T14:36:40.786Z,1.60
2017-08-14T14:39:09.808Z,5.43
2017-08-14T14:41:38.797Z,2.40
2017-08-14T14:57:14.820Z,2.17
2017-08-14T14:59:43.816Z,1.97
2017-08-14T15:02:12.804Z,2.80
2017-08-14T15:04:42.539Z,2.20
2017-08-14T15:07:12.426Z,2.47
2017-08-14T15:09:44.265Z,1.90
2017-08-14T15:12:13.832Z,2.97
2017-08-14T15:14:43.065Z,2.90
2017-08-14T15:17:12.016Z,2.23
2017-08-14T15:19:41.058Z,1.93
2017-08-14T15:22:10.673Z,3.60
2017-08-14T15:24:39.645Z,2.00
2017-08-14T15:27:08.603Z,2.10
2017-08-14T15:29:37.575Z,2.20
2017-08-14T15:32:06.583Z,2.40
2017-08-14T15:34:36.504Z,2.90
2017-08-14T15:37:05.431Z,1.93
2017-08-14T15:39:34.404Z,2.30
2017-08-14T15:42:03.361Z,4.30
2017-08-14T15:44:32.394Z,2.17
2017-08-14T15:47:05.769Z,2.00
2017-08-14T15:49:38.808Z,1.70
2017-08-14T15:52:13.889Z,2.53
2017-08-14T15:54:44.367Z,2.37
2017-08-14T15:57:13.952Z,2.80
2017-08-14T15:59:42.962Z,2.80
2017-08-14T16:02:12.585Z,1.90
2017-08-14T16:04:41.583Z,2.17
2017-08-14T16:07:11.671Z,2.50
2017-08-14T16:09:42.270Z,2.07
2017-08-14T16:12:11.226Z,3.90
2017-08-14T16:14:40.837Z,3.07
2017-08-14T16:17:10.663Z,2.10
2017-08-14T16:19:46.139Z,2.37
2017-08-14T16:22:16.746Z,2.40
2017-08-14T16:24:45.739Z,2.23
2017-08-14T16:27:14.792Z,1.90
2017-08-14T16:29:43.808Z,2.37
2017-08-14T16:32:12.816Z,2.40
2017-08-14T16:34:42.558Z,1.90
2017-08-14T16:37:11.622Z,2.10
2017-08-14T16:39:42.540Z,2.67
2017-08-14T16:42:13.899Z,3.53
2017-08-14T16:44:43.771Z,1.87
2017-08-14T16:47:12.739Z,2.70
2017-08-14T16:49:41.797Z,2.20
2017-08-14T16:52:10.797Z,2.23
2017-08-14T16:54:40.165Z,2.30
2017-08-14T16:57:09.578Z,2.07
2017-08-14T16:59:39.492Z,2.20
2017-08-14T17:02:08.484Z,2.50
2017-08-14T17:04:39.133Z,2.87
2017-08-14T17:07:08.160Z,3.27
2017-08-14T17:09:37.125Z,2.53
2017-08-14T17:12:07.050Z,2.40
2017-08-14T17:14:36.988Z,2.60
2017-08-14T17:17:05.972Z,4.07
2017-08-14T17:19:34.953Z,2.30
2017-08-14T17:22:03.907Z,4.10
2017-08-14T17:24:34.501Z,2.70
2017-08-14T17:27:03.565Z,2.30
2017-08-14T17:29:32.562Z,2.20
2017-08-14T17:32:02.812Z,4.70
2017-08-14T17:34:33.072Z,2.73
2017-08-14T17:37:02.069Z,3.47
2017-08-14T17:39:31.040Z,2.30
2017-08-14T17:42:00.740Z,2.70
2017-08-14T17:44:29.740Z,3.37
2017-08-14T17:46:58.743Z,2.47
2017-08-14T17:49:28.475Z,3.17
2017-08-14T17:51:57.412Z,2.40
2017-08-14T17:54:26.394Z,2.83
2017-08-14T17:56:55.377Z,3.17
2017-08-14T17:59:24.343Z,3.57
2017-08-14T18:01:53.292Z,2.40
2017-08-14T18:04:22.469Z,3.93
2017-08-14T18:06:51.408Z,2.47
2017-08-14T18:09:20.396Z,2.40
2017-08-14T18:11:49.377Z,2.53
2017-08-14T18:14:19.094Z,3.10
2017-08-14T18:16:48.839Z,5.10
2017-08-14T18:19:17.890Z,3.60
2017-08-14T18:21:46.849Z,4.00
2017-08-14T18:24:15.778Z,3.20
2017-08-14T18:26:45.536Z,2.70
2017-08-14T18:29:14.484Z,3.10
2017-08-14T18:31:44.223Z,2.63
2017-08-14T18:34:13.194Z,2.50
2017-08-14T18:36:42.281Z,3.80
2017-08-14T18:39:13.984Z,2.57
2017-08-14T18:41:42.977Z,2.77
2017-08-14T18:44:11.957Z,3.07
2017-08-14T18:46:40.877Z,3.90
2017-08-14T18:49:09.864Z,3.40
2017-08-14T18:51:38.848Z,3.17
2017-08-14T18:54:07.814Z,3.30
2017-08-14T18:56:36.783Z,2.60
2017-08-14T18:59:06.578Z,2.77
2017-08-14T19:01:36.363Z,2.57
2017-08-14T19:04:05.384Z,2.80
2017-08-14T19:06:34.335Z,2.97
2017-08-14T19:09:04.986Z,2.67
2017-08-14T19:11:32.384Z,2.80
2017-08-14T19:14:02.296Z,4.00
2017-08-14T19:16:31.247Z,4.37
2017-08-14T19:19:00.243Z,3.67
2017-08-14T19:21:29.206Z,3.17
2017-08-14T19:23:58.164Z,3.97
2017-08-14T19:26:27.213Z,4.50
2017-08-14T19:28:56.214Z,2.73
2017-08-14T19:31:25.162Z,2.87
2017-08-14T19:33:54.195Z,3.73
2017-08-14T19:36:23.183Z,3.07
2017-08-14T19:38:52.114Z,3.80
2017-08-14T19:41:21.144Z,3.70
2017-08-14T19:43:50.208Z,3.00
2017-08-14T19:46:19.208Z,2.70
2017-08-14T19:48:48.165Z,3.27
2017-08-14T19:51:17.933Z,3.23
2017-08-14T19:53:46.915Z,3.17
2017-08-14T19:56:15.888Z,3.20
2017-08-14T19:58:44.923Z,3.85
2017-08-14T20:01:13.865Z,4.10
2017-08-14T20:03:42.935Z,4.40
2017-08-14T20:06:11.893Z,3.63
2017-08-14T20:08:41.592Z,5.10
2017-08-14T20:11:10.559Z,3.40
2017-08-14T20:13:40.701Z,2.93
2017-08-14T20:16:09.650Z,3.67
2017-08-14T20:18:38.611Z,4.67
2017-08-14T20:21:07.583Z,3.80
2017-08-14T20:23:36.562Z,3.60
2017-08-14T20:26:05.509Z,4.83
2017-08-14T20:28:35.242Z,4.70
2017-08-14T20:31:04.191Z,3.50
2017-08-14T20:33:33.160Z,3.67
2017-08-14T20:36:02.095Z,3.60
2017-08-14T20:38:31.067Z,3.23
2017-08-14T20:41:00.037Z,3.10
2017-08-14T20:43:29.014Z,3.90
2017-08-14T20:45:57.978Z,3.83
2017-08-14T20:48:26.951Z,3.50
2017-08-14T20:50:55.895Z,3.70
2017-08-14T20:53:24.885Z,5.03
2017-08-14T20:55:53.832Z,3.60
2017-08-14T20:58:22.791Z,5.37
2017-08-14T21:00:51.764Z,3.43
2017-08-14T21:03:20.721Z,3.30
2017-08-14T21:05:49.690Z,4.10
2017-08-14T21:08:18.655Z,3.90
2017-08-14T21:10:47.619Z,3.67
2017-08-14T21:13:16.751Z,5.10
2017-08-14T21:15:45.716Z,4.67
2017-08-14T21:18:14.671Z,3.70
2017-08-14T21:20:43.628Z,3.90
2017-08-14T21:23:13.378Z,4.03
2017-08-14T21:25:42.372Z,3.70
2017-08-14T21:28:11.317Z,3.23
2017-08-14T21:30:40.306Z,3.50
2017-08-14T21:33:09.267Z,3.30
2017-08-14T21:35:38.269Z,4.63
2017-08-14T21:38:07.302Z,4.03
2017-08-14T21:40:36.259Z,3.67
2017-08-14T21:43:05.229Z,3.80
2017-08-14T21:45:34.241Z,3.83
2017-08-14T21:48:03.187Z,4.77
2017-08-14T21:50:32.114Z,3.80
2017-08-14T21:53:01.080Z,3.80
2017-08-14T21:55:30.147Z,3.40
2017-08-14T21:57:59.110Z,3.77
2017-08-14T22:00:28.046Z,4.67
2017-08-14T22:02:56.987Z,5.43
2017-08-14T22:05:25.956Z,4.00
2017-08-14T22:07:54.919Z,4.00
2017-08-14T22:10:23.881Z,3.87
2017-08-14T22:12:52.818Z,3.80
2017-08-14T22:15:21.889Z,6.50
2017-08-14T22:17:50.885Z,5.10
2017-08-14T22:20:19.818Z,4.23
2017-08-14T22:22:48.852Z,3.87
2017-08-14T22:25:17.887Z,5.20
2017-08-14T22:27:46.854Z,3.87
2017-08-14T22:30:15.932Z,4.23
2017-08-14T22:32:48.094Z,5.70
2017-08-14T22:35:17.058Z,4.90
2017-08-14T22:37:45.986Z,4.00
2017-08-14T22:40:15.724Z,3.67
2017-08-14T22:42:44.676Z,4.20
2017-08-14T22:45:14.424Z,4.37
2017-08-14T22:47:43.391Z,3.33
2017-08-14T22:50:13.146Z,4.13
2017-08-14T22:52:42.085Z,3.57
2017-08-14T22:55:11.029Z,3.60
2017-08-14T22:57:39.991Z,5.97
2017-08-14T23:00:08.996Z,6.10
2017-08-14T23:02:37.990Z,3.77
2017-08-14T23:05:06.951Z,4.47
2017-08-14T23:07:35.919Z,4.50
2017-08-14T23:10:04.896Z,3.70
2017-08-14T23:12:33.935Z,3.40
2017-08-14T23:15:02.898Z,3.70
2017-08-14T23:17:31.838Z,3.83
2017-08-14T23:20:00.855Z,4.30
2017-08-14T23:22:29.803Z,6.60
2017-08-14T23:24:59.504Z,3.87
2017-08-14T23:27:28.476Z,3.83
2017-08-14T23:29:58.194Z,3.70
2017-08-14T23:32:27.150Z,3.90
2017-08-14T23:34:56.076Z,4.43
2017-08-14T23:37:25.807Z,3.97
2017-08-14T23:39:54.759Z,4.00
2017-08-14T23:42:23.738Z,4.93
2017-08-14T23:44:52.678Z,4.33
2017-08-14T23:47:21.648Z,4.47
2017-08-14T23:49:51.360Z,6.77
2017-08-14T23:52:21.099Z,4.43
2017-08-14T23:54:50.043Z,7.30
2017-08-14T23:57:19.024Z,4.20
2017-08-14T23:59:47.979Z,5.00
